Time;durP1;ratioP1;P1;durP2;ratioP2;P2;SDS_P1;SDS_P2;PMS_P1;PMS_P2;Temp;Humidity;BMP_temperature;BMP_pressure;BME280_temperature;BME280_humidity;BME280_pressure;Samples;Min_cycle;Max_cycle;Signal;HPM_P1;HPM_P2
2023/05/17 00:00:33;;;;;;;21.57;5.73;;;;;;;;;;5029809;28;20543;-61
2023/05/17 00:02:59;;;;;;;28.73;5.47;;;;;;;;;;5030517;28;20136;-61
2023/05/17 00:05:24;;;;;;;18.47;5.43;;;;;;;;;;5029714;28;20033;-62
2023/05/17 00:07:50;;;;;;;28.80;6.40;;;;;;;;;;5027348;28;20049;-61
2023/05/17 00:10:15;;;;;;;17.37;5.70;;;;;;;;;;5023791;28;20676;-61
2023/05/17 00:12:41;;;;;;;20.43;5.83;;;;;;;;;;5028185;28;20405;-61
2023/05/17 00:15:06;;;;;;;23.30;6.57;;;;;;;;;;5029589;28;20022;-61
2023/05/17 00:17:31;;;;;;;24.83;5.70;;;;;;;;;;5031077;28;20032;-61
2023/05/17 00:19:57;;;;;;;22.40;7.30;;;;;;;;;;5026068;28;20026;-61
2023/05/17 00:22:22;;;;;;;22.37;6.03;;;;;;;;;;5012668;28;20093;-61
2023/05/17 00:24:47;;;;;;;22.70;5.80;;;;;;;;;;5014933;28;20021;-62
2023/05/17 00:27:12;;;;;;;19.97;5.83;;;;;;;;;;5019519;28;20033;-62
2023/05/17 00:29:38;;;;;;;18.23;5.43;;;;;;;;;;5013799;28;20085;-62
2023/05/17 00:32:03;;;;;;;21.67;5.83;;;;;;;;;;5014776;28;20026;-62
2023/05/17 00:34:28;;;;;;;18.10;6.57;;;;;;;;;;5015161;28;20098;-62
2023/05/17 00:36:54;;;;;;;23.60;5.67;;;;;;;;;;5030874;28;20025;-62
2023/05/17 00:39:19;;;;;;;27.90;7.20;;;;;;;;;;5028507;28;20022;-61
2023/05/17 00:41:45;;;;;;;20.13;5.93;;;;;;;;;;5028460;28;20184;-61
2023/05/17 00:44:10;;;;;;;26.20;5.57;;;;;;;;;;5025307;28;20160;-61
2023/05/17 00:46:35;;;;;;;18.23;5.23;;;;;;;;;;5023207;28;20059;-61
2023/05/17 00:49:01;;;;;;;22.87;5.20;;;;;;;;;;5018129;28;20037;-61
2023/05/17 00:51:27;;;;;;;25.67;5.80;;;;;;;;;;5032859;28;20025;-61
2023/05/17 00:53:53;;;;;;;24.23;5.53;;;;;;;;;;5032107;28;20022;-62
2023/05/17 00:56:18;;;;;;;24.60;5.13;;;;;;;;;;5026228;28;20379;-61
2023/05/17 00:58:43;;;;;;;25.20;6.27;;;;;;;;;;5032699;28;20389;-61
2023/05/17 01:04:12;;;;;;;18.97;5.37;;;;;;;;;;5026925;28;20445;-62
2023/05/17 01:06:37;;;;;;;20.63;4.90;;;;;;;;;;5030211;28;20057;-61
2023/05/17 01:09:03;;;;;;;21.03;5.57;;;;;;;;;;5015928;28;20101;-62
2023/05/17 01:11:58;;;;;;;22.30;5.10;;;;;;;;;;5021737;28;20033;-61
2023/05/17 01:14:42;;;;;;;22.00;5.53;;;;;;;;;;5013403;28;20030;-62
2023/05/17 01:17:20;;;;;;;26.97;5.30;;;;;;;;;;5028996;28;20530;-61
2023/05/17 01:20:18;;;;;;;21.53;5.70;;;;;;;;;;5024796;28;20446;-62
2023/05/17 01:22:49;;;;;;;22.17;5.20;;;;;;;;;;4992157;28;20517;-61
2023/05/17 01:25:46;;;;;;;20.67;4.75;;;;;;;;;;5024737;28;20496;-61
2023/05/17 01:28:12;;;;;;;28.37;5.80;;;;;;;;;;5023974;28;20025;-62
2023/05/17 01:30:39;;;;;;;25.40;5.03;;;;;;;;;;5037702;28;20112;-61
2023/05/17 01:33:04;;;;;;;23.40;5.10;;;;;;;;;;5034107;28;20529;-61
2023/05/17 01:35:30;;;;;;;28.53;4.70;;;;;;;;;;5036322;28;20097;-62
2023/05/17 01:37:55;;;;;;;29.37;5.67;;;;;;;;;;5040970;28;20470;-61
2023/05/17 01:40:20;;;;;;;20.27;5.17;;;;;;;;;;5028844;28;20022;-62
2023/05/17 01:42:48;;;;;;;21.17;4.63;;;;;;;;;;5015600;28;20021;-61
2023/05/17 01:45:20;;;;;;;24.20;5.40;;;;;;;;;;5021214;28;20524;-62
2023/05/17 01:48:01;;;;;;;20.73;4.90;;;;;;;;;;5015569;28;20061;-61
2023/05/17 01:50:28;;;;;;;24.67;5.17;;;;;;;;;;5030101;28;20056;-61
2023/05/17 01:52:54;;;;;;;24.87;5.57;;;;;;;;;;5034722;28;20567;-61
2023/05/17 01:55:33;;;;;;;22.40;4.93;;;;;;;;;;5024145;28;20018;-62
2023/05/17 01:58:00;;;;;;;22.90;5.27;;;;;;;;;;5034414;28;20029;-61
2023/05/17 02:00:26;;;;;;;24.70;5.20;;;;;;;;;;5029156;28;20064;-62
2023/05/17 02:02:52;;;;;;;28.70;5.63;;;;;;;;;;5022747;28;20120;-61
2023/05/17 02:05:17;;;;;;;28.37;5.13;;;;;;;;;;5015168;28;20496;-61
2023/05/17 02:07:42;;;;;;;19.90;4.67;;;;;;;;;;5015222;28;20018;-61
2023/05/17 02:10:08;;;;;;;24.87;4.90;;;;;;;;;;5017841;28;20022;-61
2023/05/17 02:12:33;;;;;;;20.87;4.63;;;;;;;;;;5030151;28;20385;-61
2023/05/17 02:14:58;;;;;;;20.47;4.30;;;;;;;;;;5031188;28;20022;-62
2023/05/17 02:17:24;;;;;;;30.50;5.13;;;;;;;;;;5031961;28;20025;-61
2023/05/17 02:19:49;;;;;;;27.37;4.80;;;;;;;;;;5030845;28;20075;-61
2023/05/17 02:22:14;;;;;;;30.00;4.80;;;;;;;;;;5031840;28;20590;-61
2023/05/17 02:24:40;;;;;;;24.47;5.10;;;;;;;;;;5027584;28;20068;-64
2023/05/17 02:27:05;;;;;;;22.23;4.47;;;;;;;;;;5033774;28;20091;-61
2023/05/17 02:29:30;;;;;;;24.27;4.87;;;;;;;;;;5028585;28;20029;-61
2023/05/17 02:31:56;;;;;;;26.97;5.50;;;;;;;;;;5025296;28;20017;-70
2023/05/17 02:34:21;;;;;;;23.07;4.50;;;;;;;;;;5030775;28;20032;-70
2023/05/17 02:36:47;;;;;;;26.90;4.67;;;;;;;;;;5038750;28;20026;-67
2023/05/17 02:39:12;;;;;;;28.53;4.93;;;;;;;;;;5046961;28;20036;-68
2023/05/17 02:41:38;;;;;;;28.67;5.40;;;;;;;;;;5047606;28;20037;-68
2023/05/17 02:44:03;;;;;;;23.87;5.30;;;;;;;;;;5045133;28;20025;-69
2023/05/17 02:46:28;;;;;;;32.20;5.83;;;;;;;;;;5045760;28;20029;-67
2023/05/17 02:48:53;;;;;;;25.70;5.57;;;;;;;;;;5049081;28;20033;-67
2023/05/17 02:51:19;;;;;;;25.13;5.83;;;;;;;;;;5047456;28;20029;-67
2023/05/17 02:53:44;;;;;;;27.53;5.20;;;;;;;;;;5046779;28;20072;-69
2023/05/17 02:56:10;;;;;;;26.50;5.10;;;;;;;;;;5042872;28;20032;-69
2023/05/17 02:58:36;;;;;;;29.17;6.93;;;;;;;;;;5032430;28;20096;-61
2023/05/17 03:01:01;;;;;;;27.43;5.20;;;;;;;;;;5030707;28;20449;-61
2023/05/17 03:03:26;;;;;;;34.87;6.40;;;;;;;;;;5028575;28;20200;-61
2023/05/17 03:05:52;;;;;;;18.90;4.77;;;;;;;;;;5032860;28;20036;-61
2023/05/17 03:08:17;;;;;;;19.33;5.20;;;;;;;;;;5027740;28;20036;-62
2023/05/17 03:10:42;;;;;;;28.07;5.00;;;;;;;;;;5031475;28;20093;-61
2023/05/17 03:13:08;;;;;;;24.10;4.93;;;;;;;;;;5029406;28;20547;-61
2023/05/17 03:15:33;;;;;;;25.07;5.30;;;;;;;;;;5029750;28;20492;-61
2023/05/17 03:17:58;;;;;;;27.60;5.00;;;;;;;;;;5028233;28;20026;-61
2023/05/17 03:20:24;;;;;;;22.43;4.73;;;;;;;;;;5031017;28;21359;-61
2023/05/17 03:22:49;;;;;;;20.17;4.33;;;;;;;;;;5031849;28;20032;-61
2023/05/17 03:25:14;;;;;;;20.60;4.10;;;;;;;;;;5029647;28;20041;-61
2023/05/17 03:27:40;;;;;;;24.90;3.80;;;;;;;;;;5022385;28;20025;-62
2023/05/17 03:30:06;;;;;;;22.63;4.27;;;;;;;;;;5029534;28;20029;-61
2023/05/17 03:32:31;;;;;;;21.80;4.73;;;;;;;;;;5028833;28;20018;-61
2023/05/17 03:34:56;;;;;;;21.63;3.90;;;;;;;;;;5025420;28;20017;-61
2023/05/17 03:37:21;;;;;;;17.87;3.60;;;;;;;;;;5045717;28;20025;-61
2023/05/17 03:39:47;;;;;;;22.20;3.67;;;;;;;;;;5028636;28;20033;-61
2023/05/17 03:42:12;;;;;;;19.63;3.70;;;;;;;;;;5028739;28;20096;-61
2023/05/17 03:44:37;;;;;;;23.53;3.40;;;;;;;;;;5032277;28;20450;-61
2023/05/17 03:47:03;;;;;;;19.27;3.57;;;;;;;;;;5028954;28;20096;-61
2023/05/17 03:49:28;;;;;;;18.83;3.40;;;;;;;;;;5024353;28;20385;-61
2023/05/17 03:51:53;;;;;;;24.37;3.20;;;;;;;;;;5031094;28;20029;-61
2023/05/17 03:54:18;;;;;;;18.83;3.10;;;;;;;;;;5030466;28;20021;-61
2023/05/17 03:56:48;;;;;;;21.33;3.63;;;;;;;;;;5029949;28;20021;-61
2023/05/17 03:59:14;;;;;;;18.50;3.90;;;;;;;;;;5030392;28;20025;-60
2023/05/17 04:01:40;;;;;;;18.47;3.43;;;;;;;;;;5018376;28;20362;-61
2023/05/17 04:04:05;;;;;;;18.40;3.63;;;;;;;;;;5025289;28;20045;-61
2023/05/17 04:06:31;;;;;;;17.67;3.70;;;;;;;;;;5028789;28;20013;-61
2023/05/17 04:08:58;;;;;;;17.73;3.27;;;;;;;;;;5031897;28;20725;-61
2023/05/17 04:11:25;;;;;;;15.30;3.00;;;;;;;;;;5031734;28;20374;-61
2023/05/17 04:13:51;;;;;;;16.60;3.77;;;;;;;;;;5028856;28;20021;-61
2023/05/17 04:16:16;;;;;;;16.40;2.27;;;;;;;;;;5025746;28;20449;-60
2023/05/17 04:18:41;;;;;;;14.83;2.40;;;;;;;;;;5012014;28;20022;-60
2023/05/17 04:21:06;;;;;;;16.77;2.80;;;;;;;;;;5021632;28;20025;-60
2023/05/17 04:23:32;;;;;;;16.27;2.43;;;;;;;;;;5021232;28;20117;-61
2023/05/17 04:25:58;;;;;;;18.57;2.40;;;;;;;;;;5025572;28;20104;-60
2023/05/17 04:28:24;;;;;;;16.23;2.43;;;;;;;;;;5018981;28;20481;-60
2023/05/17 04:30:50;;;;;;;16.10;2.20;;;;;;;;;;5020512;28;20048;-60
2023/05/17 04:33:15;;;;;;;11.60;2.43;;;;;;;;;;5025588;28;20388;-60
2023/05/17 04:35:41;;;;;;;13.33;2.97;;;;;;;;;;5024547;28;20014;-60
2023/05/17 04:38:06;;;;;;;10.80;1.73;;;;;;;;;;5018956;28;20021;-60
2023/05/17 04:40:32;;;;;;;15.10;1.70;;;;;;;;;;5030490;28;20516;-60
2023/05/17 04:42:57;;;;;;;12.10;2.20;;;;;;;;;;5024706;28;20057;-60
2023/05/17 04:45:22;;;;;;;15.17;2.93;;;;;;;;;;5015017;28;20025;-60
2023/05/17 04:47:49;;;;;;;11.77;2.20;;;;;;;;;;5021958;28;20029;-60
2023/05/17 04:50:15;;;;;;;11.93;1.70;;;;;;;;;;5021322;28;20030;-60
2023/05/17 04:52:40;;;;;;;16.47;2.07;;;;;;;;;;5019230;28;20131;-60
2023/05/17 04:55:05;;;;;;;16.87;2.63;;;;;;;;;;5025029;28;20108;-59
2023/05/17 04:57:31;;;;;;;13.23;2.13;;;;;;;;;;5032852;28;20023;-59
2023/05/17 04:59:56;;;;;;;13.60;1.87;;;;;;;;;;5036188;28;20025;-59
2023/05/17 05:02:21;;;;;;;10.47;1.70;;;;;;;;;;5030058;28;20049;-59
2023/05/17 05:04:47;;;;;;;11.80;2.10;;;;;;;;;;5022586;28;20104;-59
2023/05/17 05:07:12;;;;;;;14.23;2.00;;;;;;;;;;5016515;28;20032;-60
2023/05/17 05:09:37;;;;;;;10.97;2.00;;;;;;;;;;5018623;28;20474;-60
2023/05/17 05:12:03;;;;;;;9.70;1.87;;;;;;;;;;5030382;28;20072;-60
2023/05/17 05:14:28;;;;;;;11.93;1.73;;;;;;;;;;5036279;28;20042;-60
2023/05/17 05:16:54;;;;;;;12.83;2.40;;;;;;;;;;5032646;28;20497;-60
2023/05/17 05:19:20;;;;;;;13.67;1.93;;;;;;;;;;5030310;28;20021;-60
2023/05/17 05:21:45;;;;;;;11.53;1.70;;;;;;;;;;5035604;28;20041;-60
2023/05/17 05:24:10;;;;;;;8.03;1.53;;;;;;;;;;5034480;28;20385;-60
2023/05/17 05:26:36;;;;;;;11.60;2.03;;;;;;;;;;5038225;28;20024;-59
2023/05/17 05:29:02;;;;;;;16.30;2.33;;;;;;;;;;5034660;28;20026;-60
2023/05/17 05:31:27;;;;;;;11.50;2.17;;;;;;;;;;5035833;28;20064;-60
2023/05/17 05:33:52;;;;;;;13.77;2.00;;;;;;;;;;5017640;28;20543;-60
2023/05/17 05:36:18;;;;;;;11.53;2.03;;;;;;;;;;5015728;28;20480;-60
2023/05/17 05:38:43;;;;;;;11.13;2.03;;;;;;;;;;5034626;28;20029;-60
2023/05/17 05:41:08;;;;;;;12.40;1.97;;;;;;;;;;5035748;28;20033;-59
2023/05/17 05:43:34;;;;;;;9.47;1.83;;;;;;;;;;5035394;28;20029;-58
2023/05/17 05:46:00;;;;;;;15.63;2.07;;;;;;;;;;5035063;28;20108;-59
2023/05/17 05:48:25;;;;;;;8.17;1.77;;;;;;;;;;5029955;28;20125;-59
2023/05/17 05:50:51;;;;;;;7.97;1.50;;;;;;;;;;5034869;28;20041;-60
2023/05/17 05:53:16;;;;;;;10.82;2.00;;;;;;;;;;5035626;28;20025;-59
2023/05/17 05:55:41;;;;;;;11.73;1.77;;;;;;;;;;5035498;28;20029;-59
2023/05/17 05:58:07;;;;;;;9.15;1.50;;;;;;;;;;5034851;28;20033;-59
2023/05/17 06:00:32;;;;;;;8.35;1.40;;;;;;;;;;5034319;28;20025;-59
2023/05/17 06:02:58;;;;;;;9.00;1.67;;;;;;;;;;5019839;28;20401;-59
2023/05/17 06:05:23;;;;;;;10.90;1.55;;;;;;;;;;5035153;28;20056;-59
2023/05/17 06:07:48;;;;;;;9.75;1.80;;;;;;;;;;5034011;28;20470;-60
2023/05/17 06:10:14;;;;;;;7.63;1.42;;;;;;;;;;5034745;28;20026;-60
2023/05/17 06:12:39;;;;;;;9.57;1.50;;;;;;;;;;5035134;28;20130;-59
2023/05/17 06:15:05;;;;;;;11.30;1.70;;;;;;;;;;5048417;28;20043;-59
2023/05/17 06:17:30;;;;;;;9.00;1.60;;;;;;;;;;5014979;28;20072;-59
2023/05/17 06:19:56;;;;;;;12.68;2.10;;;;;;;;;;5015223;28;20034;-60
2023/05/17 06:22:21;;;;;;;13.45;1.80;;;;;;;;;;5014893;28;20060;-59
2023/05/17 06:24:46;;;;;;;7.97;1.70;;;;;;;;;;5014851;28;20022;-59
2023/05/17 06:27:12;;;;;;;11.10;1.73;;;;;;;;;;5015096;28;20052;-58
2023/05/17 06:29:37;;;;;;;10.60;1.90;;;;;;;;;;5018525;28;20488;-59
2023/05/17 06:32:03;;;;;;;10.90;1.98;;;;;;;;;;5033039;28;20079;-59
2023/05/17 06:34:28;;;;;;;11.73;1.73;;;;;;;;;;5014574;28;20018;-59
2023/05/17 06:36:53;;;;;;;10.35;1.67;;;;;;;;;;5014949;28;20109;-60
2023/05/17 06:39:19;;;;;;;10.15;1.77;;;;;;;;;;5014514;28;20030;-60
2023/05/17 06:41:44;;;;;;;9.20;1.60;;;;;;;;;;5014646;28;20030;-60
2023/05/17 06:44:09;;;;;;;10.27;1.50;;;;;;;;;;5022129;28;20105;-60
2023/05/17 06:46:35;;;;;;;7.00;1.60;;;;;;;;;;5034132;28;20065;-60
2023/05/17 06:49:00;;;;;;;11.23;1.70;;;;;;;;;;5034350;28;20025;-60
2023/05/17 06:51:25;;;;;;;12.60;2.00;;;;;;;;;;5034435;28;20025;-60
2023/05/17 06:53:50;;;;;;;12.43;1.87;;;;;;;;;;5034025;28;20525;-60
2023/05/17 06:56:16;;;;;;;8.37;1.60;;;;;;;;;;5025305;28;20073;-60
2023/05/17 06:58:41;;;;;;;11.13;1.97;;;;;;;;;;5024561;28;20160;-60
2023/05/17 07:01:06;;;;;;;13.07;2.27;;;;;;;;;;5029536;28;20033;-60
2023/05/17 07:03:32;;;;;;;11.80;2.00;;;;;;;;;;5031504;28;20115;-61
2023/05/17 07:05:58;;;;;;;10.03;2.30;;;;;;;;;;5036315;28;20041;-60
2023/05/17 07:08:23;;;;;;;11.73;2.17;;;;;;;;;;5034076;28;20049;-60
2023/05/17 07:10:50;;;;;;;17.37;2.60;;;;;;;;;;5033242;28;20083;-58
2023/05/17 07:13:16;;;;;;;10.45;1.75;;;;;;;;;;5033145;28;20026;-58
2023/05/17 07:15:41;;;;;;;12.68;1.85;;;;;;;;;;5033947;28;20440;-59
2023/05/17 07:18:06;;;;;;;10.25;2.03;;;;;;;;;;5033890;28;20021;-58
2023/05/17 07:20:32;;;;;;;8.73;1.90;;;;;;;;;;5033291;28;20144;-59
2023/05/17 07:22:57;;;;;;;12.23;1.88;;;;;;;;;;5030560;28;20029;-59
2023/05/17 07:25:22;;;;;;;8.98;1.88;;;;;;;;;;5033522;28;20030;-59
2023/05/17 07:27:48;;;;;;;9.48;1.67;;;;;;;;;;5041100;28;20032;-59
2023/05/17 07:30:13;;;;;;;11.23;1.70;;;;;;;;;;5051336;28;20048;-59
2023/05/17 07:32:38;;;;;;;15.70;2.08;;;;;;;;;;5053286;28;20465;-59
2023/05/17 07:35:04;;;;;;;7.25;1.27;;;;;;;;;;5053575;28;20048;-59
2023/05/17 07:37:29;;;;;;;12.63;2.00;;;;;;;;;;5035091;28;20036;-59
2023/05/17 07:39:54;;;;;;;9.75;2.00;;;;;;;;;;5024704;28;20025;-59
2023/05/17 07:42:19;;;;;;;10.00;1.67;;;;;;;;;;5013525;28;20096;-59
2023/05/17 07:44:47;;;;;;;10.95;1.73;;;;;;;;;;5026855;28;20035;-60
2023/05/17 07:47:12;;;;;;;6.65;1.58;;;;;;;;;;5032910;28;20423;-59
2023/05/17 07:49:37;;;;;;;8.88;1.58;;;;;;;;;;5032897;28;20017;-60
2023/05/17 07:52:03;;;;;;;9.15;1.70;;;;;;;;;;5031844;28;20025;-59
2023/05/17 07:54:29;;;;;;;8.88;1.83;;;;;;;;;;5033158;28;20041;-59
2023/05/17 07:56:54;;;;;;;8.55;1.48;;;;;;;;;;5033132;28;20441;-59
2023/05/17 07:59:20;;;;;;;9.43;1.67;;;;;;;;;;5032148;28;20064;-60
2023/05/17 08:01:46;;;;;;;10.77;1.70;;;;;;;;;;5032900;28;20025;-59
2023/05/17 08:04:13;;;;;;;8.98;1.88;;;;;;;;;;5030694;28;20056;-60
2023/05/17 08:06:38;;;;;;;13.05;2.00;;;;;;;;;;5033031;28;20151;-59
2023/05/17 08:09:03;;;;;;;10.90;1.80;;;;;;;;;;5028508;28;20104;-60
2023/05/17 08:11:30;;;;;;;12.18;2.03;;;;;;;;;;5033233;28;20025;-59
2023/05/17 08:13:55;;;;;;;8.50;1.80;;;;;;;;;;5033584;28;20025;-59
2023/05/17 08:16:21;;;;;;;11.15;1.73;;;;;;;;;;5032861;28;20022;-60
2023/05/17 08:18:46;;;;;;;10.30;1.75;;;;;;;;;;5032688;28;20021;-59
2023/05/17 08:21:11;;;;;;;8.50;1.77;;;;;;;;;;5034096;28;20025;-58
2023/05/17 08:23:37;;;;;;;12.98;2.08;;;;;;;;;;5036860;28;20520;-59
2023/05/17 08:26:02;;;;;;;11.60;1.85;;;;;;;;;;5037171;28;20018;-59
2023/05/17 08:28:27;;;;;;;10.60;1.90;;;;;;;;;;5037627;28;20499;-59
2023/05/17 08:30:52;;;;;;;10.32;1.80;;;;;;;;;;5056677;28;20083;-59
2023/05/17 08:33:19;;;;;;;8.82;2.40;;;;;;;;;;5056881;28;20389;-60
2023/05/17 08:35:45;;;;;;;10.88;2.15;;;;;;;;;;5056908;28;20474;-60
2023/05/17 08:38:10;;;;;;;10.73;1.92;;;;;;;;;;5056832;28;20024;-60
2023/05/17 08:40:35;;;;;;;11.52;2.40;;;;;;;;;;5056792;28;20384;-60
2023/05/17 08:43:01;;;;;;;12.15;2.70;;;;;;;;;;5052274;28;20044;-60
2023/05/17 08:45:26;;;;;;;10.52;1.75;;;;;;;;;;5036932;28;20014;-62
2023/05/17 08:47:53;;;;;;;10.00;2.25;;;;;;;;;;5036445;28;20025;-60
2023/05/17 08:50:18;;;;;;;11.20;2.20;;;;;;;;;;5036620;28;20519;-59
2023/05/17 08:52:44;;;;;;;8.88;1.65;;;;;;;;;;5036319;28;20017;-58
2023/05/17 08:55:10;;;;;;;10.52;1.80;;;;;;;;;;5036534;28;20021;-58
2023/05/17 08:57:36;;;;;;;9.40;1.77;;;;;;;;;;5035447;28;20436;-59
2023/05/17 09:00:11;;;;;;;9.50;1.80;;;;;;;;;;5036508;28;20029;-59
2023/05/17 09:02:36;;;;;;;8.98;1.83;;;;;;;;;;5036012;28;20550;-59
2023/05/17 09:05:02;;;;;;;12.82;1.98;;;;;;;;;;5036181;28;20055;-59
2023/05/17 09:07:27;;;;;;;7.88;1.80;;;;;;;;;;5038847;28;20093;-59
2023/05/17 09:09:53;;;;;;;10.15;2.08;;;;;;;;;;5035972;28;20025;-59
2023/05/17 09:12:19;;;;;;;12.77;2.55;;;;;;;;;;5031367;28;20026;-60
2023/05/17 09:14:44;;;;;;;12.35;2.10;;;;;;;;;;5016444;28;20021;-60
2023/05/17 09:17:12;;;;;;;11.40;1.90;;;;;;;;;;5016508;28;20454;-61
2023/05/17 09:19:42;;;;;;;13.35;2.03;;;;;;;;;;5016309;28;20434;-60
2023/05/17 09:22:07;;;;;;;16.77;2.20;;;;;;;;;;5033379;28;20473;-61
2023/05/17 09:24:33;;;;;;;10.43;1.88;;;;;;;;;;5042404;28;20040;-60
2023/05/17 09:27:02;;;;;;;9.57;1.90;;;;;;;;;;5036513;28;20017;-60
2023/05/17 09:29:30;;;;;;;11.57;2.13;;;;;;;;;;5034781;28;20412;-61
2023/05/17 09:31:55;;;;;;;14.13;2.30;;;;;;;;;;5035638;28;20034;-60
2023/05/17 09:34:23;;;;;;;7.18;1.40;;;;;;;;;;5035264;28;20035;-60
2023/05/17 09:36:48;;;;;;;7.35;1.50;;;;;;;;;;5035451;28;20021;-60
2023/05/17 09:39:14;;;;;;;14.48;2.78;;;;;;;;;;5035586;28;20028;-60
2023/05/17 09:41:44;;;;;;;18.48;2.20;;;;;;;;;;5035764;28;20045;-60
2023/05/17 09:44:10;;;;;;;13.38;2.55;;;;;;;;;;5034717;28;20052;-60
2023/05/17 09:46:39;;;;;;;6.72;1.42;;;;;;;;;;5035355;28;20060;-60
2023/05/17 09:49:06;;;;;;;11.85;1.95;;;;;;;;;;5034916;28;20029;-60
2023/05/17 09:51:35;;;;;;;8.15;1.45;;;;;;;;;;5035160;28;20022;-60
2023/05/17 09:54:00;;;;;;;11.40;2.25;;;;;;;;;;5034453;28;20025;-60
2023/05/17 09:56:29;;;;;;;9.73;1.60;;;;;;;;;;5033210;28;20485;-60
2023/05/17 09:58:55;;;;;;;9.00;2.13;;;;;;;;;;5015411;28;20077;-59
2023/05/17 10:01:21;;;;;;;10.40;1.92;;;;;;;;;;5016600;28;20037;-60
2023/05/17 10:03:47;;;;;;;6.80;1.63;;;;;;;;;;5033941;28;20061;-60
2023/05/17 10:06:14;;;;;;;8.15;1.60;;;;;;;;;;5041009;28;20481;-60
2023/05/17 10:08:43;;;;;;;9.60;2.00;;;;;;;;;;5034901;28;20036;-59
2023/05/17 10:11:09;;;;;;;8.43;1.60;;;;;;;;;;5034853;28;20033;-59
2023/05/17 10:13:47;;;;;;;9.35;1.67;;;;;;;;;;5034184;28;20069;-60
2023/05/17 10:16:14;;;;;;;12.00;2.28;;;;;;;;;;5034114;28;20049;-60
2023/05/17 10:18:40;;;;;;;8.80;1.70;;;;;;;;;;5034004;28;20025;-60
2023/05/17 10:21:06;;;;;;;18.30;2.00;;;;;;;;;;5034999;28;20029;-60
2023/05/17 10:23:32;;;;;;;9.82;2.10;;;;;;;;;;5034743;28;20029;-60
2023/05/17 10:25:58;;;;;;;9.48;1.70;;;;;;;;;;5034674;28;20082;-60
2023/05/17 10:28:25;;;;;;;10.80;2.05;;;;;;;;;;5034947;28;20462;-60
2023/05/17 10:30:52;;;;;;;7.30;1.40;;;;;;;;;;5034790;28;20056;-59
2023/05/17 10:33:17;;;;;;;6.28;1.50;;;;;;;;;;5034854;28;20028;-60
2023/05/17 10:35:43;;;;;;;9.60;1.85;;;;;;;;;;5034468;28;20454;-60
2023/05/17 10:38:09;;;;;;;9.32;1.60;;;;;;;;;;5034776;28;20155;-59
2023/05/17 10:40:35;;;;;;;7.32;1.60;;;;;;;;;;5034667;28;20502;-59
2023/05/17 10:43:01;;;;;;;11.70;1.80;;;;;;;;;;5033272;28;20053;-60
2023/05/17 10:45:27;;;;;;;12.05;1.60;;;;;;;;;;5033533;28;20048;-60
2023/05/17 10:47:52;;;;;;;9.75;1.60;;;;;;;;;;5034194;28;20104;-60
2023/05/17 10:50:21;;;;;;;7.35;1.38;;;;;;;;;;5034361;28;20032;-60
2023/05/17 10:52:47;;;;;;;6.53;1.50;;;;;;;;;;5034387;28;20049;-61
2023/05/17 10:55:12;;;;;;;5.55;1.35;;;;;;;;;;5034129;28;20484;-60
2023/05/17 10:57:38;;;;;;;5.88;1.30;;;;;;;;;;5028203;28;20040;-59
2023/05/17 11:00:08;;;;;;;7.20;1.20;;;;;;;;;;5032196;28;20025;-60
2023/05/17 11:02:38;;;;;;;5.93;1.50;;;;;;;;;;5020427;28;20050;-61
2023/05/17 11:05:03;;;;;;;9.68;1.77;;;;;;;;;;5033857;28;20032;-60
2023/05/17 11:07:37;;;;;;;6.93;1.40;;;;;;;;;;5131443;27;20876;-61
2023/05/17 11:10:05;;;;;;;6.70;1.30;;;;;;;;;;5131556;28;20106;-61
2023/05/17 11:12:41;;;;;;;6.90;1.20;;;;;;;;;;5145677;27;20454;-61
2023/05/17 11:15:11;;;;;;;7.60;1.65;;;;;;;;;;5152326;27;20101;-61
2023/05/17 11:18:02;;;;;;;5.88;1.30;;;;;;;;;;5135208;27;20035;-61
2023/05/17 11:20:31;;;;;;;5.78;1.33;;;;;;;;;;5127109;28;20039;-61
2023/05/17 11:23:15;;;;;;;8.27;1.50;;;;;;;;;;5131420;28;20026;-61
2023/05/17 11:25:40;;;;;;;7.32;1.52;;;;;;;;;;5131278;28;20030;-62
2023/05/17 11:28:07;;;;;;;6.05;1.50;;;;;;;;;;5129194;27;20401;-61
2023/05/17 11:30:33;;;;;;;7.00;1.50;;;;;;;;;;5130989;28;20098;-61
2023/05/17 11:33:01;;;;;;;7.18;1.58;;;;;;;;;;5131244;28;20042;-61
2023/05/17 11:35:27;;;;;;;7.45;1.70;;;;;;;;;;5129558;28;20008;-61
2023/05/17 11:38:10;;;;;;;6.60;1.48;;;;;;;;;;5131012;28;20011;-61
2023/05/17 11:40:37;;;;;;;7.97;1.60;;;;;;;;;;5130777;27;20034;-61
2023/05/17 11:43:09;;;;;;;7.18;1.45;;;;;;;;;;5144583;27;20026;-62
2023/05/17 11:45:42;;;;;;;9.15;1.50;;;;;;;;;;5131048;28;20027;-62
2023/05/17 11:48:07;;;;;;;6.95;1.45;;;;;;;;;;5124835;28;20053;-61
2023/05/17 11:50:34;;;;;;;6.68;1.75;;;;;;;;;;5130941;28;20020;-62
2023/05/17 11:53:00;;;;;;;8.93;1.60;;;;;;;;;;5130572;28;20007;-61
2023/05/17 11:55:25;;;;;;;10.52;1.90;;;;;;;;;;5130695;28;20026;-61
2023/05/17 11:57:51;;;;;;;10.25;2.08;;;;;;;;;;5115427;27;20031;-61
2023/05/17 12:00:23;;;;;;;7.40;1.42;;;;;;;;;;5112847;28;20031;-61
2023/05/17 12:02:48;;;;;;;7.30;1.50;;;;;;;;;;5129013;27;20094;-61
2023/05/17 12:05:18;;;;;;;9.88;1.50;;;;;;;;;;5127616;28;20530;-61
2023/05/17 12:07:44;;;;;;;9.02;1.65;;;;;;;;;;5129551;28;20026;-61
2023/05/17 12:10:11;;;;;;;7.45;1.50;;;;;;;;;;5130309;27;20016;-62
2023/05/17 12:12:37;;;;;;;8.20;1.50;;;;;;;;;;5128973;27;20068;-62
2023/05/17 12:15:02;;;;;;;4.72;1.08;;;;;;;;;;5126165;27;20016;-62
2023/05/17 12:17:30;;;;;;;9.95;1.40;;;;;;;;;;5104743;28;20035;-62
2023/05/17 12:20:05;;;;;;;6.38;1.40;;;;;;;;;;5096929;28;20020;-62
2023/05/17 12:22:31;;;;;;;4.70;1.40;;;;;;;;;;5116794;28;20483;-62
2023/05/17 12:24:56;;;;;;;6.47;1.23;;;;;;;;;;5116341;28;20129;-63
2023/05/17 12:27:29;;;;;;;4.70;1.55;;;;;;;;;;5114081;28;20106;-62
2023/05/17 12:29:55;;;;;;;9.25;1.63;;;;;;;;;;5116592;28;20042;-62
2023/05/17 12:32:20;;;;;;;6.05;1.52;;;;;;;;;;5116235;28;20015;-62
2023/05/17 12:34:46;;;;;;;11.13;1.80;;;;;;;;;;5102318;28;20037;-62
2023/05/17 12:37:12;;;;;;;11.60;1.83;;;;;;;;;;5116388;28;20019;-62
2023/05/17 12:39:37;;;;;;;8.77;1.63;;;;;;;;;;5115929;28;20506;-63
2023/05/17 12:42:03;;;;;;;6.65;1.67;;;;;;;;;;5114995;28;20017;-62
2023/05/17 12:44:28;;;;;;;11.95;2.17;;;;;;;;;;5115869;28;20027;-63
2023/05/17 12:46:54;;;;;;;11.60;1.52;;;;;;;;;;5115875;28;20098;-62
2023/05/17 12:49:20;;;;;;;8.27;1.80;;;;;;;;;;5115012;27;20012;-62
2023/05/17 12:51:46;;;;;;;9.80;1.77;;;;;;;;;;5115983;28;20016;-62
2023/05/17 12:54:17;;;;;;;7.10;1.75;;;;;;;;;;5116082;28;20012;-62
2023/05/17 12:56:43;;;;;;;6.68;1.70;;;;;;;;;;5114618;28;20016;-63
2023/05/17 12:59:19;;;;;;;8.70;1.90;;;;;;;;;;5114078;28;20095;-63
2023/05/17 13:01:48;;;;;;;5.60;1.50;;;;;;;;;;5113503;27;20774;-63
2023/05/17 13:04:15;;;;;;;9.63;2.10;;;;;;;;;;5115913;28;20383;-64
2023/05/17 13:06:56;;;;;;;6.45;1.60;;;;;;;;;;5115234;28;20176;-64
2023/05/17 13:09:22;;;;;;;;;;;;;;;;;;5116245;28;20494;-64
2023/05/17 13:11:54;;;;;;;5.78;1.40;;;;;;;;;;5114563;28;19904;-63
2023/05/17 13:14:53;;;;;;;8.98;2.47;;;;;;;;;;5095252;28;20452;-63
2023/05/17 13:17:25;;;;;;;8.85;1.90;;;;;;;;;;5061450;28;20028;-62
2023/05/17 13:19:51;;;;;;;7.68;1.80;;;;;;;;;;5113872;28;20404;-63
2023/05/17 13:22:16;;;;;;;8.13;1.60;;;;;;;;;;5115111;28;20096;-63
2023/05/17 13:24:43;;;;;;;6.93;1.63;;;;;;;;;;5097368;28;20511;-64
2023/05/17 13:27:08;;;;;;;9.85;1.83;;;;;;;;;;5101112;28;20472;-64
2023/05/17 13:29:35;;;;;;;8.45;1.52;;;;;;;;;;5114216;28;20015;-63
2023/05/17 13:32:00;;;;;;;8.57;2.05;;;;;;;;;;5112225;28;20019;-63
2023/05/17 13:34:26;;;;;;;8.48;1.70;;;;;;;;;;5114984;28;20072;-63
2023/05/17 13:36:51;;;;;;;7.70;1.85;;;;;;;;;;5115194;28;20019;-63
2023/05/17 13:39:16;;;;;;;7.60;1.67;;;;;;;;;;5115205;28;20023;-62
2023/05/17 13:41:42;;;;;;;7.50;1.83;;;;;;;;;;5113827;28;20019;-64
2023/05/17 13:44:07;;;;;;;7.43;1.88;;;;;;;;;;5114267;28;20068;-63
2023/05/17 13:46:33;;;;;;;8.70;1.75;;;;;;;;;;5114915;28;20099;-64
2023/05/17 13:48:58;;;;;;;9.02;1.67;;;;;;;;;;5114487;28;20024;-64
2023/05/17 13:51:24;;;;;;;8.77;1.83;;;;;;;;;;5114828;28;20082;-64
2023/05/17 13:53:49;;;;;;;8.52;1.85;;;;;;;;;;5114755;28;20024;-63
2023/05/17 13:56:15;;;;;;;12.20;2.25;;;;;;;;;;5106988;28;20384;-63
2023/05/17 13:58:40;;;;;;;9.13;1.98;;;;;;;;;;5114404;28;20023;-63
2023/05/17 14:01:06;;;;;;;10.73;1.70;;;;;;;;;;5114626;28;20073;-64
2023/05/17 14:03:31;;;;;;;7.88;1.55;;;;;;;;;;5113142;28;20424;-64
2023/05/17 14:05:57;;;;;;;9.18;1.80;;;;;;;;;;5110576;28;20047;-67
2023/05/17 14:08:22;;;;;;;7.80;1.70;;;;;;;;;;5112771;28;20371;-65
2023/05/17 14:10:47;;;;;;;7.50;1.70;;;;;;;;;;5112599;28;20027;-65
2023/05/17 14:13:13;;;;;;;9.48;1.90;;;;;;;;;;5114534;28;20530;-63
2023/05/17 14:15:38;;;;;;;10.23;2.05;;;;;;;;;;5114515;28;20507;-62
2023/05/17 14:18:08;;;;;;;8.00;1.92;;;;;;;;;;5114486;28;20027;-62
2023/05/17 14:20:33;;;;;;;8.52;1.98;;;;;;;;;;5103967;28;20417;-62
2023/05/17 14:22:59;;;;;;;7.03;1.80;;;;;;;;;;5093641;28;20024;-62
2023/05/17 14:25:24;;;;;;;8.88;2.08;;;;;;;;;;5100661;28;20102;-62
2023/05/17 14:27:51;;;;;;;8.13;2.03;;;;;;;;;;5114176;28;20012;-62
2023/05/17 14:30:16;;;;;;;9.57;1.60;;;;;;;;;;5113856;28;20031;-64
2023/05/17 14:32:41;;;;;;;10.68;2.42;;;;;;;;;;5114100;28;20019;-64
2023/05/17 14:35:07;;;;;;;7.82;1.95;;;;;;;;;;5112429;28;20023;-65